sensor_id;sensor_type;location;lat;lon;timestamp;P1;durP1;ratioP1;P2;durP2;ratioP2
7193;SDS011;3638;48.820;9.244;2022-11-21T00:00:57;2.20;;;2.00;;
7193;SDS011;3638;48.820;9.244;2022-11-21T00:03:26;2.50;;;1.90;;
7193;SDS011;3638;48.820;9.244;2022-11-21T00:05:53;2.80;;;2.00;;
7193;SDS011;3638;48.820;9.244;2022-11-21T00:08:20;2.30;;;2.10;;
7193;SDS011;3638;48.820;9.244;2022-11-21T00:10:47;2.30;;;2.07;;
7193;SDS011;3638;48.820;9.244;2022-11-21T00:13:15;1.80;;;1.70;;
7193;SDS011;3638;48.820;9.244;2022-11-21T00:15:44;2.30;;;2.10;;
7193;SDS011;3638;48.820;9.244;2022-11-21T00:18:11;2.00;;;1.90;;
7193;SDS011;3638;48.820;9.244;2022-11-21T00:20:40;2.13;;;2.03;;
7193;SDS011;3638;48.820;9.244;2022-11-21T00:23:07;2.00;;;1.90;;
7193;SDS011;3638;48.820;9.244;2022-11-21T00:25:35;2.50;;;1.70;;
7193;SDS011;3638;48.820;9.244;2022-11-21T00:28:03;3.00;;;2.60;;
7193;SDS011;3638;48.820;9.244;2022-11-21T00:30:30;1.90;;;1.80;;
7193;SDS011;3638;48.820;9.244;2022-11-21T00:32:57;2.50;;;1.70;;
7193;SDS011;3638;48.820;9.244;2022-11-21T00:35:24;2.20;;;2.00;;
7193;SDS011;3638;48.820;9.244;2022-11-21T00:37:53;1.83;;;1.73;;
7193;SDS011;3638;48.820;9.244;2022-11-21T00:40:19;1.60;;;1.60;;
7193;SDS011;3638;48.820;9.244;2022-11-21T00:42:46;2.00;;;1.90;;
7193;SDS011;3638;48.820;9.244;2022-11-21T00:45:13;2.27;;;1.90;;
7193;SDS011;3638;48.820;9.244;2022-11-21T00:47:41;2.07;;;1.97;;
7193;SDS011;3638;48.820;9.244;2022-11-21T00:50:08;1.93;;;1.73;;
7193;SDS011;3638;48.820;9.244;2022-11-21T00:52:35;1.80;;;1.70;;
7193;SDS011;3638;48.820;9.244;2022-11-21T00:55:04;1.90;;;1.80;;
7193;SDS011;3638;48.820;9.244;2022-11-21T00:57:31;1.87;;;1.77;;
7193;SDS011;3638;48.820;9.244;2022-11-21T00:59:58;1.90;;;1.80;;
7193;SDS011;3638;48.820;9.244;2022-11-21T01:02:25;1.90;;;1.80;;
7193;SDS011;3638;48.820;9.244;2022-11-21T01:04:52;2.00;;;1.90;;
7193;SDS011;3638;48.820;9.244;2022-11-21T01:07:19;1.90;;;1.80;;
7193;SDS011;3638;48.820;9.244;2022-11-21T01:09:45;2.10;;;2.00;;
7193;SDS011;3638;48.820;9.244;2022-11-21T01:12:14;2.00;;;1.87;;
7193;SDS011;3638;48.820;9.244;2022-11-21T01:14:40;2.20;;;2.00;;
7193;SDS011;3638;48.820;9.244;2022-11-21T01:17:07;2.00;;;1.90;;
7193;SDS011;3638;48.820;9.244;2022-11-21T01:19:34;2.10;;;1.90;;
7193;SDS011;3638;48.820;9.244;2022-11-21T01:22:01;1.80;;;1.70;;
7193;SDS011;3638;48.820;9.244;2022-11-21T01:24:28;2.17;;;1.97;;
7193;SDS011;3638;48.820;9.244;2022-11-21T01:26:55;3.87;;;2.20;;
7193;SDS011;3638;48.820;9.244;2022-11-21T01:29:24;1.90;;;1.80;;
7193;SDS011;3638;48.820;9.244;2022-11-21T01:31:51;1.83;;;1.73;;
7193;SDS011;3638;48.820;9.244;2022-11-21T01:34:18;2.00;;;1.90;;
7193;SDS011;3638;48.820;9.244;2022-11-21T01:36:45;2.13;;;2.03;;
7193;SDS011;3638;48.820;9.244;2022-11-21T01:39:12;2.00;;;1.90;;
7193;SDS011;3638;48.820;9.244;2022-11-21T01:41:39;2.00;;;1.90;;
7193;SDS011;3638;48.820;9.244;2022-11-21T01:44:12;2.10;;;2.00;;
7193;SDS011;3638;48.820;9.244;2022-11-21T01:46:45;2.30;;;2.10;;
7193;SDS011;3638;48.820;9.244;2022-11-21T01:49:14;2.17;;;2.07;;
7193;SDS011;3638;48.820;9.244;2022-11-21T01:51:45;2.53;;;2.20;;
7193;SDS011;3638;48.820;9.244;2022-11-21T01:54:18;2.17;;;2.00;;
7193;SDS011;3638;48.820;9.244;2022-11-21T01:56:50;2.10;;;2.00;;
7193;SDS011;3638;48.820;9.244;2022-11-21T01:59:25;2.50;;;2.20;;
7193;SDS011;3638;48.820;9.244;2022-11-21T02:01:57;2.20;;;1.90;;
7193;SDS011;3638;48.820;9.244;2022-11-21T02:04:27;2.23;;;2.13;;
7193;SDS011;3638;48.820;9.244;2022-11-21T02:06:57;2.37;;;2.17;;
7193;SDS011;3638;48.820;9.244;2022-11-21T02:09:27;3.93;;;2.17;;
7193;SDS011;3638;48.820;9.244;2022-11-21T02:11:57;2.10;;;1.90;;
7193;SDS011;3638;48.820;9.244;2022-11-21T02:14:31;2.00;;;1.83;;
7193;SDS011;3638;48.820;9.244;2022-11-21T02:17:02;2.30;;;2.10;;
7193;SDS011;3638;48.820;9.244;2022-11-21T02:19:33;3.70;;;2.00;;
7193;SDS011;3638;48.820;9.244;2022-11-21T02:22:09;2.50;;;2.10;;
7193;SDS011;3638;48.820;9.244;2022-11-21T02:24:44;2.40;;;2.00;;
7193;SDS011;3638;48.820;9.244;2022-11-21T02:27:18;2.60;;;2.40;;
7193;SDS011;3638;48.820;9.244;2022-11-21T02:29:45;2.37;;;2.10;;
7193;SDS011;3638;48.820;9.244;2022-11-21T02:32:19;2.03;;;1.90;;
7193;SDS011;3638;48.820;9.244;2022-11-21T02:34:47;2.53;;;2.00;;
7193;SDS011;3638;48.820;9.244;2022-11-21T02:37:14;1.90;;;1.80;;
7193;SDS011;3638;48.820;9.244;2022-11-21T02:39:41;2.10;;;2.00;;
7193;SDS011;3638;48.820;9.244;2022-11-21T02:42:11;2.30;;;2.10;;
7193;SDS011;3638;48.820;9.244;2022-11-21T02:44:47;2.20;;;1.93;;
7193;SDS011;3638;48.820;9.244;2022-11-21T02:47:19;2.23;;;2.07;;
7193;SDS011;3638;48.820;9.244;2022-11-21T02:49:49;2.20;;;2.00;;
7193;SDS011;3638;48.820;9.244;2022-11-21T02:52:29;2.37;;;2.10;;
7193;SDS011;3638;48.820;9.244;2022-11-21T02:54:56;2.10;;;1.90;;
7193;SDS011;3638;48.820;9.244;2022-11-21T02:57:24;2.10;;;2.00;;
7193;SDS011;3638;48.820;9.244;2022-11-21T02:59:51;1.90;;;1.80;;
7193;SDS011;3638;48.820;9.244;2022-11-21T03:02:18;2.53;;;2.00;;
7193;SDS011;3638;48.820;9.244;2022-11-21T03:04:45;2.00;;;1.90;;
7193;SDS011;3638;48.820;9.244;2022-11-21T03:07:11;2.03;;;1.90;;
7193;SDS011;3638;48.820;9.244;2022-11-21T03:09:39;2.00;;;1.90;;
7193;SDS011;3638;48.820;9.244;2022-11-21T03:12:06;2.10;;;1.90;;
7193;SDS011;3638;48.820;9.244;2022-11-21T03:14:35;2.00;;;1.90;;
7193;SDS011;3638;48.820;9.244;2022-11-21T03:17:03;2.20;;;2.10;;
7193;SDS011;3638;48.820;9.244;2022-11-21T03:19:30;2.10;;;2.00;;
7193;SDS011;3638;48.820;9.244;2022-11-21T03:21:57;2.10;;;2.00;;
7193;SDS011;3638;48.820;9.244;2022-11-21T03:24:23;2.17;;;2.00;;
7193;SDS011;3638;48.820;9.244;2022-11-21T03:26:51;1.93;;;1.83;;
7193;SDS011;3638;48.820;9.244;2022-11-21T03:29:17;2.27;;;2.07;;
7193;SDS011;3638;48.820;9.244;2022-11-21T03:31:46;2.00;;;1.90;;
7193;SDS011;3638;48.820;9.244;2022-11-21T03:34:12;2.07;;;1.97;;
7193;SDS011;3638;48.820;9.244;2022-11-21T03:36:39;2.00;;;1.90;;
7193;SDS011;3638;48.820;9.244;2022-11-21T03:39:07;2.03;;;1.90;;
7193;SDS011;3638;48.820;9.244;2022-11-21T03:41:34;2.20;;;2.03;;
7193;SDS011;3638;48.820;9.244;2022-11-21T03:44:01;2.00;;;1.90;;
7193;SDS011;3638;48.820;9.244;2022-11-21T03:46:32;2.17;;;2.07;;
7193;SDS011;3638;48.820;9.244;2022-11-21T03:49:02;1.80;;;1.70;;
7193;SDS011;3638;48.820;9.244;2022-11-21T03:51:33;2.00;;;1.90;;
7193;SDS011;3638;48.820;9.244;2022-11-21T03:54:00;2.10;;;2.00;;
7193;SDS011;3638;48.820;9.244;2022-11-21T03:56:28;2.00;;;1.90;;
7193;SDS011;3638;48.820;9.244;2022-11-21T03:58:55;2.07;;;1.97;;
7193;SDS011;3638;48.820;9.244;2022-11-21T04:01:22;2.20;;;2.00;;
7193;SDS011;3638;48.820;9.244;2022-11-21T04:03:50;2.13;;;1.70;;
7193;SDS011;3638;48.820;9.244;2022-11-21T04:06:19;2.73;;;2.03;;
7193;SDS011;3638;48.820;9.244;2022-11-21T04:08:47;1.80;;;1.70;;
7193;SDS011;3638;48.820;9.244;2022-11-21T04:11:14;3.40;;;1.83;;
7193;SDS011;3638;48.820;9.244;2022-11-21T04:13:42;2.00;;;1.90;;
7193;SDS011;3638;48.820;9.244;2022-11-21T04:16:09;2.03;;;1.93;;
7193;SDS011;3638;48.820;9.244;2022-11-21T04:18:35;2.27;;;1.90;;
7193;SDS011;3638;48.820;9.244;2022-11-21T04:21:05;2.00;;;1.90;;
7193;SDS011;3638;48.820;9.244;2022-11-21T04:23:34;2.00;;;1.90;;
7193;SDS011;3638;48.820;9.244;2022-11-21T04:26:01;2.00;;;1.90;;
7193;SDS011;3638;48.820;9.244;2022-11-21T04:28:28;2.07;;;1.97;;
7193;SDS011;3638;48.820;9.244;2022-11-21T04:31:00;1.80;;;1.70;;
7193;SDS011;3638;48.820;9.244;2022-11-21T04:33:28;1.90;;;1.80;;
7193;SDS011;3638;48.820;9.244;2022-11-21T04:35:55;1.97;;;1.80;;
7193;SDS011;3638;48.820;9.244;2022-11-21T04:38:22;2.00;;;1.90;;
7193;SDS011;3638;48.820;9.244;2022-11-21T04:40:51;2.10;;;2.00;;
7193;SDS011;3638;48.820;9.244;2022-11-21T04:43:18;1.90;;;1.80;;
7193;SDS011;3638;48.820;9.244;2022-11-21T04:45:45;2.00;;;1.90;;
7193;SDS011;3638;48.820;9.244;2022-11-21T04:48:11;2.63;;;1.87;;
7193;SDS011;3638;48.820;9.244;2022-11-21T04:50:38;2.20;;;1.90;;
7193;SDS011;3638;48.820;9.244;2022-11-21T04:53:05;2.20;;;2.10;;
7193;SDS011;3638;48.820;9.244;2022-11-21T04:55:32;2.37;;;2.10;;
7193;SDS011;3638;48.820;9.244;2022-11-21T04:58:01;2.00;;;1.90;;
7193;SDS011;3638;48.820;9.244;2022-11-21T05:00:28;2.27;;;2.10;;
7193;SDS011;3638;48.820;9.244;2022-11-21T05:02:59;2.07;;;1.97;;
7193;SDS011;3638;48.820;9.244;2022-11-21T05:05:28;2.80;;;2.20;;
7193;SDS011;3638;48.820;9.244;2022-11-21T05:07:55;2.53;;;2.10;;
7193;SDS011;3638;48.820;9.244;2022-11-21T05:10:22;2.00;;;1.90;;
7193;SDS011;3638;48.820;9.244;2022-11-21T05:12:55;2.37;;;1.97;;
7193;SDS011;3638;48.820;9.244;2022-11-21T05:15:41;2.10;;;2.00;;
7193;SDS011;3638;48.820;9.244;2022-11-21T05:18:09;2.33;;;2.00;;
7193;SDS011;3638;48.820;9.244;2022-11-21T05:20:36;2.57;;;2.00;;
7193;SDS011;3638;48.820;9.244;2022-11-21T05:23:03;2.70;;;2.00;;
7193;SDS011;3638;48.820;9.244;2022-11-21T05:25:29;2.70;;;1.97;;
7193;SDS011;3638;48.820;9.244;2022-11-21T05:27:56;2.07;;;1.93;;
7193;SDS011;3638;48.820;9.244;2022-11-21T05:30:23;2.30;;;2.10;;
7193;SDS011;3638;48.820;9.244;2022-11-21T05:32:51;2.20;;;2.00;;
7193;SDS011;3638;48.820;9.244;2022-11-21T05:35:18;3.30;;;2.20;;
7193;SDS011;3638;48.820;9.244;2022-11-21T05:37:45;2.60;;;2.40;;
7193;SDS011;3638;48.820;9.244;2022-11-21T05:40:12;2.43;;;2.23;;
7193;SDS011;3638;48.820;9.244;2022-11-21T05:42:39;2.23;;;2.07;;
7193;SDS011;3638;48.820;9.244;2022-11-21T05:45:25;2.20;;;2.00;;
7193;SDS011;3638;48.820;9.244;2022-11-21T05:47:53;1.90;;;1.80;;
7193;SDS011;3638;48.820;9.244;2022-11-21T05:50:20;3.60;;;2.13;;
7193;SDS011;3638;48.820;9.244;2022-11-21T05:52:47;2.20;;;2.07;;
7193;SDS011;3638;48.820;9.244;2022-11-21T05:55:14;1.90;;;1.80;;
7193;SDS011;3638;48.820;9.244;2022-11-21T05:57:41;3.13;;;2.20;;
7193;SDS011;3638;48.820;9.244;2022-11-21T06:00:09;2.63;;;2.30;;
7193;SDS011;3638;48.820;9.244;2022-11-21T06:02:36;2.33;;;2.23;;
7193;SDS011;3638;48.820;9.244;2022-11-21T06:05:22;2.37;;;2.00;;
7193;SDS011;3638;48.820;9.244;2022-11-21T06:07:49;2.37;;;2.17;;
7193;SDS011;3638;48.820;9.244;2022-11-21T06:10:16;2.53;;;2.23;;
7193;SDS011;3638;48.820;9.244;2022-11-21T06:12:43;3.73;;;2.40;;
7193;SDS011;3638;48.820;9.244;2022-11-21T06:15:10;4.63;;;4.17;;
7193;SDS011;3638;48.820;9.244;2022-11-21T06:17:37;8.10;;;5.80;;
7193;SDS011;3638;48.820;9.244;2022-11-21T06:20:04;7.00;;;4.60;;
7193;SDS011;3638;48.820;9.244;2022-11-21T06:22:34;4.83;;;3.47;;
7193;SDS011;3638;48.820;9.244;2022-11-21T06:25:01;3.60;;;3.30;;
7193;SDS011;3638;48.820;9.244;2022-11-21T06:27:28;3.30;;;3.00;;
7193;SDS011;3638;48.820;9.244;2022-11-21T06:29:55;4.30;;;3.23;;
7193;SDS011;3638;48.820;9.244;2022-11-21T06:32:21;2.87;;;2.60;;
7193;SDS011;3638;48.820;9.244;2022-11-21T06:34:49;3.03;;;2.70;;
7193;SDS011;3638;48.820;9.244;2022-11-21T06:37:15;3.40;;;3.00;;
7193;SDS011;3638;48.820;9.244;2022-11-21T06:39:44;2.43;;;2.23;;
7193;SDS011;3638;48.820;9.244;2022-11-21T06:42:10;5.07;;;2.70;;
7193;SDS011;3638;48.820;9.244;2022-11-21T06:44:37;3.00;;;2.47;;
7193;SDS011;3638;48.820;9.244;2022-11-21T06:47:04;3.53;;;2.67;;
7193;SDS011;3638;48.820;9.244;2022-11-21T06:49:31;3.33;;;2.53;;
7193;SDS011;3638;48.820;9.244;2022-11-21T06:51:58;3.20;;;2.90;;
7193;SDS011;3638;48.820;9.244;2022-11-21T06:54:25;3.13;;;2.60;;
7193;SDS011;3638;48.820;9.244;2022-11-21T06:56:54;2.60;;;2.40;;
7193;SDS011;3638;48.820;9.244;2022-11-21T06:59:22;4.73;;;2.83;;
7193;SDS011;3638;48.820;9.244;2022-11-21T07:01:49;3.10;;;2.80;;
7193;SDS011;3638;48.820;9.244;2022-11-21T07:04:17;3.27;;;2.50;;
7193;SDS011;3638;48.820;9.244;2022-11-21T07:06:44;3.23;;;2.37;;
7193;SDS011;3638;48.820;9.244;2022-11-21T07:09:10;2.83;;;2.60;;
7193;SDS011;3638;48.820;9.244;2022-11-21T07:11:37;4.63;;;3.10;;
7193;SDS011;3638;48.820;9.244;2022-11-21T07:14:06;4.27;;;2.80;;
7193;SDS011;3638;48.820;9.244;2022-11-21T07:16:33;3.17;;;2.70;;
7193;SDS011;3638;48.820;9.244;2022-11-21T07:19:00;3.27;;;2.97;;
7193;SDS011;3638;48.820;9.244;2022-11-21T07:21:27;3.80;;;3.17;;
7193;SDS011;3638;48.820;9.244;2022-11-21T07:23:53;6.27;;;3.17;;
7193;SDS011;3638;48.820;9.244;2022-11-21T07:26:20;3.90;;;3.00;;
7193;SDS011;3638;48.820;9.244;2022-11-21T07:28:47;4.50;;;3.10;;
7193;SDS011;3638;48.820;9.244;2022-11-21T07:31:16;3.07;;;2.87;;
7193;SDS011;3638;48.820;9.244;2022-11-21T07:33:42;3.87;;;3.30;;
7193;SDS011;3638;48.820;9.244;2022-11-21T07:36:10;3.60;;;2.70;;
7193;SDS011;3638;48.820;9.244;2022-11-21T07:38:38;3.57;;;2.80;;
7193;SDS011;3638;48.820;9.244;2022-11-21T07:41:05;3.20;;;2.87;;
7193;SDS011;3638;48.820;9.244;2022-11-21T07:43:32;4.97;;;3.03;;
7193;SDS011;3638;48.820;9.244;2022-11-21T07:45:59;3.97;;;2.90;;
7193;SDS011;3638;48.820;9.244;2022-11-21T07:48:27;4.50;;;2.67;;
7193;SDS011;3638;48.820;9.244;2022-11-21T07:50:54;4.53;;;3.30;;
7193;SDS011;3638;48.820;9.244;2022-11-21T07:53:21;5.43;;;3.10;;
7193;SDS011;3638;48.820;9.244;2022-11-21T07:56:04;3.78;;;3.20;;
7193;SDS011;3638;48.820;9.244;2022-11-21T07:58:33;3.03;;;2.50;;
7193;SDS011;3638;48.820;9.244;2022-11-21T08:01:02;3.70;;;2.83;;
7193;SDS011;3638;48.820;9.244;2022-11-21T08:03:31;2.93;;;2.67;;
7193;SDS011;3638;48.820;9.244;2022-11-21T08:06:00;3.53;;;2.70;;
7193;SDS011;3638;48.820;9.244;2022-11-21T08:08:28;3.07;;;2.77;;
7193;SDS011;3638;48.820;9.244;2022-11-21T08:10:55;3.87;;;2.83;;
7193;SDS011;3638;48.820;9.244;2022-11-21T08:13:22;5.03;;;3.07;;
7193;SDS011;3638;48.820;9.244;2022-11-21T08:15:49;3.10;;;2.80;;
7193;SDS011;3638;48.820;9.244;2022-11-21T08:18:16;7.43;;;2.80;;
7193;SDS011;3638;48.820;9.244;2022-11-21T08:20:46;4.00;;;2.67;;
7193;SDS011;3638;48.820;9.244;2022-11-21T08:23:13;6.00;;;2.90;;
7193;SDS011;3638;48.820;9.244;2022-11-21T08:25:40;4.10;;;2.57;;
7193;SDS011;3638;48.820;9.244;2022-11-21T08:28:09;2.93;;;2.50;;
7193;SDS011;3638;48.820;9.244;2022-11-21T08:30:38;2.83;;;2.60;;
7193;SDS011;3638;48.820;9.244;2022-11-21T08:33:05;3.43;;;2.73;;
7193;SDS011;3638;48.820;9.244;2022-11-21T08:35:34;4.27;;;2.60;;
7193;SDS011;3638;48.820;9.244;2022-11-21T08:38:04;4.93;;;2.80;;
7193;SDS011;3638;48.820;9.244;2022-11-21T08:40:31;5.53;;;2.70;;
7193;SDS011;3638;48.820;9.244;2022-11-21T08:42:59;3.67;;;2.50;;
7193;SDS011;3638;48.820;9.244;2022-11-21T08:45:28;2.90;;;2.27;;
7193;SDS011;3638;48.820;9.244;2022-11-21T08:47:55;4.13;;;2.60;;
7193;SDS011;3638;48.820;9.244;2022-11-21T08:50:23;2.70;;;2.43;;
7193;SDS011;3638;48.820;9.244;2022-11-21T08:52:52;4.10;;;2.70;;
7193;SDS011;3638;48.820;9.244;2022-11-21T08:55:25;6.73;;;2.60;;
7193;SDS011;3638;48.820;9.244;2022-11-21T08:57:52;4.77;;;2.80;;
7193;SDS011;3638;48.820;9.244;2022-11-21T09:00:19;5.50;;;2.57;;
7193;SDS011;3638;48.820;9.244;2022-11-21T09:02:47;2.50;;;2.20;;
7193;SDS011;3638;48.820;9.244;2022-11-21T09:05:14;4.90;;;2.90;;
7193;SDS011;3638;48.820;9.244;2022-11-21T09:07:41;2.50;;;2.30;;
7193;SDS011;3638;48.820;9.244;2022-11-21T09:10:08;4.40;;;2.83;;
7193;SDS011;3638;48.820;9.244;2022-11-21T09:12:39;7.30;;;3.30;;
7193;SDS011;3638;48.820;9.244;2022-11-21T09:15:07;5.10;;;2.80;;
7193;SDS011;3638;48.820;9.244;2022-11-21T09:17:53;4.80;;;2.90;;
7193;SDS011;3638;48.820;9.244;2022-11-21T09:20:31;5.47;;;2.80;;
7193;SDS011;3638;48.820;9.244;2022-11-21T09:23:03;3.03;;;2.60;;
7193;SDS011;3638;48.820;9.244;2022-11-21T09:25:30;3.93;;;2.47;;
7193;SDS011;3638;48.820;9.244;2022-11-21T09:27:59;5.30;;;3.10;;
7193;SDS011;3638;48.820;9.244;2022-11-21T09:30:27;2.90;;;2.33;;
7193;SDS011;3638;48.820;9.244;2022-11-21T09:32:57;6.27;;;2.87;;
7193;SDS011;3638;48.820;9.244;2022-11-21T09:35:26;10.13;;;2.90;;
7193;SDS011;3638;48.820;9.244;2022-11-21T09:37:53;5.47;;;3.67;;
7193;SDS011;3638;48.820;9.244;2022-11-21T09:40:20;3.67;;;2.30;;
7193;SDS011;3638;48.820;9.244;2022-11-21T09:42:54;4.10;;;2.40;;
7193;SDS011;3638;48.820;9.244;2022-11-21T09:45:33;3.20;;;2.30;;
7193;SDS011;3638;48.820;9.244;2022-11-21T09:48:07;4.47;;;2.50;;
7193;SDS011;3638;48.820;9.244;2022-11-21T09:50:40;3.90;;;2.37;;
7193;SDS011;3638;48.820;9.244;2022-11-21T09:53:11;3.93;;;2.53;;
7193;SDS011;3638;48.820;9.244;2022-11-21T09:55:44;3.30;;;2.10;;
7193;SDS011;3638;48.820;9.244;2022-11-21T09:58:23;2.60;;;2.30;;
7193;SDS011;3638;48.820;9.244;2022-11-21T10:00:55;4.30;;;2.30;;
7193;SDS011;3638;48.820;9.244;2022-11-21T10:03:23;3.60;;;2.20;;
7193;SDS011;3638;48.820;9.244;2022-11-21T10:05:56;4.27;;;2.20;;
7193;SDS011;3638;48.820;9.244;2022-11-21T10:08:33;3.53;;;2.20;;
7193;SDS011;3638;48.820;9.244;2022-11-21T10:11:09;4.23;;;2.50;;
7193;SDS011;3638;48.820;9.244;2022-11-21T10:13:51;5.10;;;2.50;;
7193;SDS011;3638;48.820;9.244;2022-11-21T10:16:33;4.40;;;2.53;;
7193;SDS011;3638;48.820;9.244;2022-11-21T10:19:13;4.13;;;2.70;;
7193;SDS011;3638;48.820;9.244;2022-11-21T10:22:09;5.27;;;2.70;;
7193;SDS011;3638;48.820;9.244;2022-11-21T10:24:53;3.83;;;2.57;;
7193;SDS011;3638;48.820;9.244;2022-11-21T10:27:25;4.13;;;2.10;;
7193;SDS011;3638;48.820;9.244;2022-11-21T10:30:00;6.10;;;2.60;;
7193;SDS011;3638;48.820;9.244;2022-11-21T10:32:30;5.03;;;2.40;;
7193;SDS011;3638;48.820;9.244;2022-11-21T10:35:06;3.73;;;2.27;;
7193;SDS011;3638;48.820;9.244;2022-11-21T10:37:42;3.50;;;2.10;;
7193;SDS011;3638;48.820;9.244;2022-11-21T10:40:23;4.27;;;2.30;;
7193;SDS011;3638;48.820;9.244;2022-11-21T10:42:59;5.73;;;2.73;;
7193;SDS011;3638;48.820;9.244;2022-11-21T10:45:47;7.97;;;2.50;;
7193;SDS011;3638;48.820;9.244;2022-11-21T10:48:14;6.07;;;2.47;;
7193;SDS011;3638;48.820;9.244;2022-11-21T10:50:45;3.50;;;2.00;;
7193;SDS011;3638;48.820;9.244;2022-11-21T10:53:29;4.03;;;2.07;;
7193;SDS011;3638;48.820;9.244;2022-11-21T10:56:15;3.90;;;2.00;;
7193;SDS011;3638;48.820;9.244;2022-11-21T10:58:45;3.40;;;2.07;;
7193;SDS011;3638;48.820;9.244;2022-11-21T11:01:22;4.63;;;2.30;;
7193;SDS011;3638;48.820;9.244;2022-11-21T11:04:05;5.77;;;2.33;;
7193;SDS011;3638;48.820;9.244;2022-11-21T11:06:42;6.20;;;2.13;;
7193;SDS011;3638;48.820;9.244;2022-11-21T11:09:20;5.40;;;2.03;;
7193;SDS011;3638;48.820;9.244;2022-11-21T11:11:49;3.87;;;2.10;;
7193;SDS011;3638;48.820;9.244;2022-11-21T11:14:24;5.13;;;2.20;;
7193;SDS011;3638;48.820;9.244;2022-11-21T11:16:57;5.00;;;2.47;;
7193;SDS011;3638;48.820;9.244;2022-11-21T11:19:27;4.33;;;2.30;;
7193;SDS011;3638;48.820;9.244;2022-11-21T11:21:54;2.60;;;1.90;;
7193;SDS011;3638;48.820;9.244;2022-11-21T11:24:23;3.60;;;2.10;;
7193;SDS011;3638;48.820;9.244;2022-11-21T11:26:55;6.63;;;2.50;;
7193;SDS011;3638;48.820;9.244;2022-11-21T11:29:26;5.60;;;2.20;;
7193;SDS011;3638;48.820;9.244;2022-11-21T11:31:55;5.60;;;2.50;;
7193;SDS011;3638;48.820;9.244;2022-11-21T11:34:35;3.47;;;2.20;;
7193;SDS011;3638;48.820;9.244;2022-11-21T11:37:10;3.87;;;2.40;;
7193;SDS011;3638;48.820;9.244;2022-11-21T11:39:43;3.97;;;2.20;;
7193;SDS011;3638;48.820;9.244;2022-11-21T11:42:25;6.07;;;2.40;;
7193;SDS011;3638;48.820;9.244;2022-11-21T11:45:42;4.17;;;2.30;;
7193;SDS011;3638;48.820;9.244;2022-11-21T11:49:14;3.57;;;2.40;;
7193;SDS011;3638;48.820;9.244;2022-11-21T11:51:53;5.37;;;2.10;;
7193;SDS011;3638;48.820;9.244;2022-11-21T11:54:23;5.50;;;2.20;;
7193;SDS011;3638;48.820;9.244;2022-11-21T11:56:55;3.70;;;2.07;;
7193;SDS011;3638;48.820;9.244;2022-11-21T11:59:25;4.10;;;2.10;;
7193;SDS011;3638;48.820;9.244;2022-11-21T12:01:58;3.00;;;2.03;;
7193;SDS011;3638;48.820;9.244;2022-11-21T12:04:32;7.00;;;2.50;;
7193;SDS011;3638;48.820;9.244;2022-11-21T12:07:11;6.53;;;2.33;;
7193;SDS011;3638;48.820;9.244;2022-11-21T12:09:46;4.67;;;2.10;;
7193;SDS011;3638;48.820;9.244;2022-11-21T12:12:22;2.40;;;2.10;;
7193;SDS011;3638;48.820;9.244;2022-11-21T12:15:00;4.63;;;2.83;;
7193;SDS011;3638;48.820;9.244;2022-11-21T12:18:05;2.33;;;2.00;;
7193;SDS011;3638;48.820;9.244;2022-11-21T12:20:45;4.50;;;2.07;;
7193;SDS011;3638;48.820;9.244;2022-11-21T12:23:20;3.70;;;2.10;;
7193;SDS011;3638;48.820;9.244;2022-11-21T12:25:51;3.80;;;2.00;;
7193;SDS011;3638;48.820;9.244;2022-11-21T12:28:30;2.73;;;1.90;;
7193;SDS011;3638;48.820;9.244;2022-11-21T12:31:08;4.20;;;2.00;;
7193;SDS011;3638;48.820;9.244;2022-11-21T12:33:46;6.67;;;2.13;;
7193;SDS011;3638;48.820;9.244;2022-11-21T12:36:28;4.47;;;2.13;;
7193;SDS011;3638;48.820;9.244;2022-11-21T12:39:04;3.63;;;2.00;;
7193;SDS011;3638;48.820;9.244;2022-11-21T12:42:13;3.63;;;2.30;;
7193;SDS011;3638;48.820;9.244;2022-11-21T12:45:13;3.40;;;1.90;;
7193;SDS011;3638;48.820;9.244;2022-11-21T12:54:35;3.40;;;2.00;;
7193;SDS011;3638;48.820;9.244;2022-11-21T12:57:34;2.90;;;2.10;;
7193;SDS011;3638;48.820;9.244;2022-11-21T13:00:13;3.57;;;2.30;;
7193;SDS011;3638;48.820;9.244;2022-11-21T13:02:49;4.00;;;2.20;;
7193;SDS011;3638;48.820;9.244;2022-11-21T13:05:39;3.03;;;1.90;;
7193;SDS011;3638;48.820;9.244;2022-11-21T13:08:10;3.07;;;1.97;;
7193;SDS011;3638;48.820;9.244;2022-11-21T13:10:46;4.47;;;2.20;;
7193;SDS011;3638;48.820;9.244;2022-11-21T13:13:40;4.60;;;1.77;;
7193;SDS011;3638;48.820;9.244;2022-11-21T13:16:14;3.50;;;1.97;;
7193;SDS011;3638;48.820;9.244;2022-11-21T13:19:03;1.93;;;1.80;;
7193;SDS011;3638;48.820;9.244;2022-11-21T13:21:43;3.37;;;2.00;;
7193;SDS011;3638;48.820;9.244;2022-11-21T13:24:52;3.23;;;1.77;;
7193;SDS011;3638;48.820;9.244;2022-11-21T13:27:25;4.07;;;2.33;;
7193;SDS011;3638;48.820;9.244;2022-11-21T13:32:50;3.50;;;2.20;;
7193;SDS011;3638;48.820;9.244;2022-11-21T13:38:28;2.67;;;1.80;;
7193;SDS011;3638;48.820;9.244;2022-11-21T13:40:56;2.80;;;1.90;;
7193;SDS011;3638;48.820;9.244;2022-11-21T13:43:41;5.60;;;2.33;;
7193;SDS011;3638;48.820;9.244;2022-11-21T13:46:08;4.70;;;2.10;;
7193;SDS011;3638;48.820;9.244;2022-11-21T13:48:39;4.87;;;2.20;;
7193;SDS011;3638;48.820;9.244;2022-11-21T13:51:25;3.50;;;1.97;;
7193;SDS011;3638;48.820;9.244;2022-11-21T13:54:39;6.23;;;2.00;;
7193;SDS011;3638;48.820;9.244;2022-11-21T13:57:50;3.17;;;2.10;;
7193;SDS011;3638;48.820;9.244;2022-11-21T14:00:28;4.40;;;2.40;;
7193;SDS011;3638;48.820;9.244;2022-11-21T14:06:27;3.33;;;2.20;;
7193;SDS011;3638;48.820;9.244;2022-11-21T14:09:05;3.33;;;2.17;;
7193;SDS011;3638;48.820;9.244;2022-11-21T14:11:53;3.87;;;2.10;;
7193;SDS011;3638;48.820;9.244;2022-11-21T14:14:35;5.77;;;2.30;;
7193;SDS011;3638;48.820;9.244;2022-11-21T14:17:13;3.83;;;2.40;;
7193;SDS011;3638;48.820;9.244;2022-11-21T14:20:03;3.67;;;2.23;;
7193;SDS011;3638;48.820;9.244;2022-11-21T14:22:40;3.93;;;2.20;;
7193;SDS011;3638;48.820;9.244;2022-11-21T14:25:14;4.07;;;2.53;;
7193;SDS011;3638;48.820;9.244;2022-11-21T14:27:45;3.30;;;2.37;;
7193;SDS011;3638;48.820;9.244;2022-11-21T14:30:25;2.37;;;2.00;;
7193;SDS011;3638;48.820;9.244;2022-11-21T14:35:54;4.57;;;2.40;;
7193;SDS011;3638;48.820;9.244;2022-11-21T14:38:25;3.80;;;2.40;;
7193;SDS011;3638;48.820;9.244;2022-11-21T14:44:03;5.37;;;2.73;;
7193;SDS011;3638;48.820;9.244;2022-11-21T14:46:47;4.83;;;2.90;;
7193;SDS011;3638;48.820;9.244;2022-11-21T14:49:22;5.00;;;2.73;;
7193;SDS011;3638;48.820;9.244;2022-11-21T14:51:56;3.17;;;2.40;;
7193;SDS011;3638;48.820;9.244;2022-11-21T14:54:30;5.30;;;2.53;;
7193;SDS011;3638;48.820;9.244;2022-11-21T14:57:00;4.07;;;2.27;;
7193;SDS011;3638;48.820;9.244;2022-11-21T14:59:32;4.73;;;2.77;;
7193;SDS011;3638;48.820;9.244;2022-11-21T15:02:10;4.43;;;2.30;;
7193;SDS011;3638;48.820;9.244;2022-11-21T15:04:40;4.30;;;2.70;;
7193;SDS011;3638;48.820;9.244;2022-11-21T15:07:15;4.63;;;2.63;;
7193;SDS011;3638;48.820;9.244;2022-11-21T15:09:45;5.57;;;2.53;;
7193;SDS011;3638;48.820;9.244;2022-11-21T15:12:12;3.03;;;2.57;;
7193;SDS011;3638;48.820;9.244;2022-11-21T15:14:46;4.77;;;2.50;;
7193;SDS011;3638;48.820;9.244;2022-11-21T15:17:18;5.67;;;3.10;;
7193;SDS011;3638;48.820;9.244;2022-11-21T15:20:01;8.67;;;3.17;;
7193;SDS011;3638;48.820;9.244;2022-11-21T15:22:43;9.00;;;2.80;;
7193;SDS011;3638;48.820;9.244;2022-11-21T15:25:14;4.57;;;2.57;;
7193;SDS011;3638;48.820;9.244;2022-11-21T15:27:44;4.83;;;3.40;;
7193;SDS011;3638;48.820;9.244;2022-11-21T15:30:26;4.20;;;2.97;;
7193;SDS011;3638;48.820;9.244;2022-11-21T15:33:00;4.73;;;2.80;;
7193;SDS011;3638;48.820;9.244;2022-11-21T15:35:46;5.97;;;2.70;;
7193;SDS011;3638;48.820;9.244;2022-11-21T15:38:21;4.87;;;2.80;;
7193;SDS011;3638;48.820;9.244;2022-11-21T15:40:58;8.07;;;3.73;;
7193;SDS011;3638;48.820;9.244;2022-11-21T15:43:33;7.47;;;3.50;;
7193;SDS011;3638;48.820;9.244;2022-11-21T15:46:03;3.73;;;2.70;;
7193;SDS011;3638;48.820;9.244;2022-11-21T15:48:40;7.30;;;3.07;;
7193;SDS011;3638;48.820;9.244;2022-11-21T15:51:07;10.13;;;4.10;;
7193;SDS011;3638;48.820;9.244;2022-11-21T15:53:35;8.50;;;4.20;;
7193;SDS011;3638;48.820;9.244;2022-11-21T15:56:03;7.43;;;3.83;;
7193;SDS011;3638;48.820;9.244;2022-11-21T15:58:30;5.20;;;3.40;;
7193;SDS011;3638;48.820;9.244;2022-11-21T16:00:57;5.37;;;2.93;;
7193;SDS011;3638;48.820;9.244;2022-11-21T16:03:25;4.33;;;2.63;;
7193;SDS011;3638;48.820;9.244;2022-11-21T16:05:53;6.90;;;3.43;;